createdAt,value
2023-03-14T00:00:52.057Z,0.67
2023-03-14T00:01:52.098Z,0.66
2023-03-14T00:02:52.222Z,0.66
2023-03-14T00:03:51.194Z,0.66
2023-03-14T00:04:52.248Z,0.67
2023-03-14T00:05:51.313Z,0.65
2023-03-14T00:06:52.377Z,0.66
2023-03-14T00:07:51.493Z,0.65
2023-03-14T00:08:51.481Z,0.65
2023-03-14T00:09:52.550Z,0.66
2023-03-14T00:10:52.609Z,0.66
2023-03-14T00:11:52.667Z,0.68
2023-03-14T00:12:52.707Z,0.66
2023-03-14T00:13:52.784Z,0.65
2023-03-14T00:14:52.822Z,0.65
2023-03-14T00:15:52.891Z,0.66
2023-03-14T00:16:52.940Z,0.65
2023-03-14T00:17:53.025Z,0.65
2023-03-14T00:18:53.061Z,0.66
2023-03-14T00:19:52.102Z,0.67
2023-03-14T00:20:53.161Z,0.65
2023-03-14T00:21:53.212Z,0.66
2023-03-14T00:22:53.278Z,0.65
2023-03-14T00:23:53.333Z,0.65
2023-03-14T00:24:53.396Z,0.65
2023-03-14T00:25:53.438Z,0.66
2023-03-14T00:26:53.505Z,0.65
2023-03-14T00:27:53.578Z,0.66
2023-03-14T00:28:52.604Z,0.65
2023-03-14T00:29:53.669Z,0.65
2023-03-14T00:30:53.788Z,0.64
2023-03-14T00:31:52.819Z,0.65
2023-03-14T00:32:52.930Z,0.64
2023-03-14T00:33:53.955Z,0.64
2023-03-14T00:34:53.987Z,0.64
2023-03-14T00:35:54.131Z,0.65
2023-03-14T00:36:53.152Z,0.64
2023-03-14T00:37:54.174Z,0.65
2023-03-14T00:38:54.244Z,0.64
2023-03-14T00:39:54.294Z,0.65
2023-03-14T00:40:54.335Z,0.63
2023-03-14T00:41:54.416Z,0.66
2023-03-14T00:42:54.447Z,0.63
2023-03-14T00:43:54.525Z,0.65
2023-03-14T00:44:54.568Z,0.64
2023-03-14T00:45:54.629Z,0.63
2023-03-14T00:46:53.723Z,0.66
2023-03-14T00:47:54.748Z,0.63
2023-03-14T00:48:54.805Z,0.63
2023-03-14T00:49:54.892Z,0.64
2023-03-14T00:50:53.916Z,0.64
2023-03-14T00:51:54.961Z,0.62
2023-03-14T00:52:54.014Z,0.63
2023-03-14T00:53:55.074Z,0.64
2023-03-14T00:54:55.146Z,0.63
2023-03-14T00:55:54.185Z,0.62
2023-03-14T00:56:55.256Z,0.64
2023-03-14T00:57:55.293Z,0.64
2023-03-14T00:58:55.339Z,0.64
2023-03-14T00:59:55.402Z,0.62
2023-03-14T01:00:55.485Z,0.62
2023-03-14T01:01:55.565Z,0.64
2023-03-14T01:02:54.671Z,0.63
2023-03-14T01:03:55.625Z,0.61
2023-03-14T01:04:54.698Z,0.62
2023-03-14T01:05:54.763Z,0.63
2023-03-14T01:06:55.795Z,0.64
2023-03-14T01:07:55.863Z,0.64
2023-03-14T01:08:55.912Z,0.62
2023-03-14T01:09:55.990Z,0.63
2023-03-14T01:10:56.016Z,0.63
2023-03-14T01:11:56.082Z,0.62
2023-03-14T01:12:56.135Z,0.63
2023-03-14T01:13:56.201Z,0.63
2023-03-14T01:14:56.259Z,0.63
2023-03-14T01:15:56.403Z,0.62
2023-03-14T01:16:56.378Z,0.62
2023-03-14T01:17:56.442Z,0.62
2023-03-14T01:18:56.510Z,0.62
2023-03-14T01:19:56.625Z,0.63
2023-03-14T01:20:56.649Z,0.60
2023-03-14T01:21:56.668Z,0.61
2023-03-14T01:22:56.730Z,0.63
2023-03-14T01:23:56.794Z,0.61
2023-03-14T01:24:55.861Z,0.61
2023-03-14T01:25:56.912Z,0.62
2023-03-14T01:26:56.980Z,0.61
2023-03-14T01:27:57.045Z,0.62
2023-03-14T01:28:56.134Z,0.61
2023-03-14T01:29:56.156Z,0.61
2023-03-14T01:30:57.269Z,0.62
2023-03-14T01:31:56.282Z,0.61
2023-03-14T01:32:57.372Z,0.62
2023-03-14T01:33:56.404Z,0.61
2023-03-14T01:34:57.472Z,0.61
2023-03-14T01:35:56.587Z,0.61
2023-03-14T01:36:57.633Z,0.61
2023-03-14T01:37:56.652Z,0.61
2023-03-14T01:38:57.732Z,0.62
2023-03-14T01:39:56.787Z,0.61
2023-03-14T01:40:57.854Z,0.61
2023-03-14T01:41:57.905Z,0.61
2023-03-14T01:42:56.978Z,0.61
2023-03-14T01:43:57.035Z,0.61
2023-03-14T01:44:57.102Z,0.60
2023-03-14T01:45:57.357Z,0.60
2023-03-14T01:46:58.231Z,0.61
2023-03-14T01:47:58.290Z,0.60
2023-03-14T01:48:58.347Z,0.59
2023-03-14T01:49:58.412Z,0.60
2023-03-14T01:50:58.463Z,0.59
2023-03-14T01:51:58.522Z,0.61
2023-03-14T01:52:58.625Z,0.61
2023-03-14T01:53:57.715Z,0.60
2023-03-14T01:54:58.705Z,0.61
2023-03-14T01:55:57.771Z,0.60
2023-03-14T01:56:58.828Z,0.60
2023-03-14T01:57:57.938Z,0.61
2023-03-14T01:58:57.981Z,0.59
2023-03-14T01:59:59.058Z,0.61
2023-03-14T02:00:59.127Z,0.60
2023-03-14T02:01:59.138Z,0.59
2023-03-14T02:02:59.189Z,0.58
2023-03-14T02:03:58.264Z,0.60
2023-03-14T02:04:59.314Z,0.60
2023-03-14T02:05:59.434Z,0.59
2023-03-14T02:06:59.436Z,0.60
2023-03-14T02:07:59.483Z,0.59
2023-03-14T02:08:59.567Z,0.59
2023-03-14T02:09:59.594Z,0.58
2023-03-14T02:10:59.661Z,0.60
2023-03-14T02:11:58.720Z,0.59
2023-03-14T02:12:59.760Z,0.59
2023-03-14T02:13:59.822Z,0.59
2023-03-14T02:14:58.855Z,0.60
2023-03-14T02:15:59.915Z,0.59
2023-03-14T02:16:58.980Z,0.59
2023-03-14T02:18:00.019Z,0.59
2023-03-14T02:19:00.085Z,0.59
2023-03-14T02:20:00.137Z,0.60
2023-03-14T02:20:59.189Z,0.58
2023-03-14T02:22:00.229Z,0.60
2023-03-14T02:23:00.296Z,0.57
2023-03-14T02:24:00.338Z,0.59
2023-03-14T02:25:00.425Z,0.57
2023-03-14T02:26:00.480Z,0.59
2023-03-14T02:27:00.507Z,0.58
2023-03-14T02:28:00.555Z,0.59
2023-03-14T02:29:00.605Z,0.58
2023-03-14T02:29:59.671Z,0.59
2023-03-14T02:31:00.727Z,0.59
2023-03-14T02:32:00.840Z,0.59
2023-03-14T02:33:00.889Z,0.59
2023-03-14T02:34:00.880Z,0.57
2023-03-14T02:35:00.931Z,0.58
2023-03-14T02:36:01.072Z,0.58
2023-03-14T02:37:01.041Z,0.59
2023-03-14T02:38:01.109Z,0.60
2023-03-14T02:39:01.170Z,0.59
2023-03-14T02:40:01.220Z,0.57
2023-03-14T02:41:01.317Z,0.57
2023-03-14T02:42:01.332Z,0.57
2023-03-14T02:43:01.390Z,0.58
2023-03-14T02:44:01.460Z,0.58
2023-03-14T02:45:01.489Z,0.59
2023-03-14T02:46:01.631Z,0.58
2023-03-14T02:47:01.605Z,0.57
2023-03-14T02:48:01.667Z,0.58
2023-03-14T02:49:01.737Z,0.57
2023-03-14T02:50:00.769Z,0.57
2023-03-14T02:51:01.850Z,0.58
2023-03-14T02:52:01.872Z,0.58
2023-03-14T02:53:00.924Z,0.58
2023-03-14T02:54:01.986Z,0.57
2023-03-14T02:55:01.038Z,0.58
2023-03-14T02:56:01.097Z,0.57
2023-03-14T02:57:02.203Z,0.58
2023-03-14T02:58:01.230Z,0.57
2023-03-14T02:59:02.280Z,0.56
2023-03-14T03:00:02.336Z,0.58
2023-03-14T03:01:02.465Z,0.58
2023-03-14T03:02:01.863Z,0.57
2023-03-14T03:03:02.548Z,0.57
2023-03-14T03:04:01.599Z,0.56
2023-03-14T03:05:01.664Z,0.58
2023-03-14T03:06:02.714Z,0.57
2023-03-14T03:07:02.787Z,0.57
2023-03-14T03:08:01.903Z,0.57
2023-03-14T03:09:02.909Z,0.57
2023-03-14T03:10:01.976Z,0.57
2023-03-14T03:11:03.027Z,0.55
2023-03-14T03:12:02.098Z,0.56
2023-03-14T03:13:03.166Z,0.56
2023-03-14T03:14:02.198Z,0.56
2023-03-14T03:15:02.233Z,0.55
2023-03-14T03:16:03.289Z,0.56
2023-03-14T03:17:03.393Z,0.55
2023-03-14T03:18:03.389Z,0.54
2023-03-14T03:19:03.468Z,0.56
2023-03-14T03:20:03.528Z,0.56
2023-03-14T03:21:03.579Z,0.57
2023-03-14T03:22:03.638Z,0.55
2023-03-14T03:23:03.698Z,0.56
2023-03-14T03:24:03.750Z,0.56
2023-03-14T03:25:03.815Z,0.56
2023-03-14T03:26:03.856Z,0.55
2023-03-14T03:27:03.930Z,0.56
2023-03-14T03:28:03.980Z,0.55
2023-03-14T03:29:04.062Z,0.56
2023-03-14T03:30:03.110Z,0.56
2023-03-14T03:31:03.262Z,0.55
2023-03-14T03:32:04.235Z,0.55
2023-03-14T03:33:04.262Z,0.56
2023-03-14T03:34:04.323Z,0.55
2023-03-14T03:35:04.378Z,0.55
2023-03-14T03:36:03.419Z,0.54
2023-03-14T03:37:04.473Z,0.54
2023-03-14T03:38:04.501Z,0.54
2023-03-14T03:39:04.553Z,0.54
2023-03-14T03:40:04.603Z,0.54
2023-03-14T03:41:04.655Z,0.55
2023-03-14T03:42:03.669Z,0.54
2023-03-14T03:43:04.704Z,0.56
2023-03-14T03:44:04.743Z,0.55
2023-03-14T03:45:04.809Z,0.54
2023-03-14T03:46:05.193Z,0.54
2023-03-14T03:47:04.856Z,0.54
2023-03-14T03:48:04.907Z,0.54
2023-03-14T03:49:04.945Z,0.54
2023-03-14T03:50:04.994Z,0.54
2023-03-14T03:51:05.017Z,0.54
2023-03-14T03:52:05.040Z,0.53
2023-03-14T03:53:05.078Z,0.54
2023-03-14T03:54:05.110Z,0.55
2023-03-14T03:55:05.163Z,0.53
2023-03-14T03:56:05.168Z,0.54
2023-03-14T03:57:04.207Z,0.53
2023-03-14T03:58:05.232Z,0.55
2023-03-14T03:59:05.259Z,0.54
2023-03-14T04:00:05.284Z,0.54
2023-03-14T04:01:05.480Z,0.54
2023-03-14T04:02:05.394Z,0.55
2023-03-14T04:03:05.365Z,0.53
2023-03-14T04:04:05.461Z,0.54
2023-03-14T04:05:05.413Z,0.54
2023-03-14T04:06:05.568Z,0.54
2023-03-14T04:07:04.484Z,0.53
2023-03-14T04:08:05.511Z,0.53
2023-03-14T04:09:04.538Z,0.54
2023-03-14T04:10:05.561Z,0.54
2023-03-14T04:11:05.580Z,0.52
2023-03-14T04:12:05.619Z,0.53
2023-03-14T04:13:05.642Z,0.53
2023-03-14T04:14:04.665Z,0.53
2023-03-14T04:15:05.700Z,0.53
2023-03-14T04:16:05.864Z,0.52
2023-03-14T04:17:05.773Z,0.53
2023-03-14T04:18:05.770Z,0.54
2023-03-14T04:19:05.824Z,0.53
2023-03-14T04:20:05.819Z,0.53
2023-03-14T04:21:04.844Z,0.54
2023-03-14T04:22:05.913Z,0.53
2023-03-14T04:23:05.908Z,0.53
2023-03-14T04:24:05.936Z,0.55
2023-03-14T04:25:06.941Z,0.53
2023-03-14T04:26:06.000Z,0.52
2023-03-14T04:27:06.011Z,0.54
2023-03-14T04:28:06.052Z,0.53
2023-03-14T04:29:05.063Z,0.53
2023-03-14T04:30:06.073Z,0.54
2023-03-14T04:31:06.146Z,0.53
2023-03-14T04:32:06.125Z,0.53
2023-03-14T04:33:05.160Z,0.53
2023-03-14T04:34:06.174Z,0.53
2023-03-14T04:35:06.181Z,0.54
2023-03-14T04:36:05.232Z,0.53
2023-03-14T04:37:05.236Z,0.53
2023-03-14T04:38:06.274Z,0.52
2023-03-14T04:39:05.260Z,0.53
2023-03-14T04:40:06.285Z,0.53
2023-03-14T04:41:05.307Z,0.53
2023-03-14T04:42:05.323Z,0.54
2023-03-14T04:43:06.367Z,0.53
2023-03-14T04:44:06.401Z,0.53
2023-03-14T04:45:05.426Z,0.53
2023-03-14T04:46:06.444Z,0.52
2023-03-14T04:47:05.466Z,0.53
2023-03-14T04:48:05.509Z,0.52
2023-03-14T04:49:06.577Z,0.54
2023-03-14T04:50:06.632Z,0.52
2023-03-14T04:51:06.592Z,0.54
2023-03-14T04:52:05.626Z,0.53
2023-03-14T04:53:06.681Z,0.53
2023-03-14T04:54:05.671Z,0.53
2023-03-14T04:55:05.705Z,0.54
2023-03-14T04:56:06.744Z,0.53
2023-03-14T04:57:06.779Z,0.53
2023-03-14T04:58:06.817Z,0.53
2023-03-14T04:59:06.812Z,0.53
2023-03-14T05:00:06.854Z,0.52
2023-03-14T05:01:06.879Z,0.52
2023-03-14T05:02:06.958Z,0.52
2023-03-14T05:03:05.974Z,0.54
2023-03-14T05:04:06.954Z,0.54
2023-03-14T05:05:07.005Z,0.52
2023-03-14T05:06:06.024Z,0.53
2023-03-14T05:07:07.054Z,0.53
2023-03-14T05:08:07.160Z,0.52
2023-03-14T05:09:06.142Z,0.51
2023-03-14T05:10:07.180Z,0.53
2023-03-14T05:11:07.179Z,0.53
2023-03-14T05:12:06.179Z,0.52
2023-03-14T05:13:07.244Z,0.53
2023-03-14T05:14:07.251Z,0.51
2023-03-14T05:15:07.306Z,0.52
2023-03-14T05:16:07.331Z,0.53
2023-03-14T05:17:07.320Z,0.52
2023-03-14T05:18:07.409Z,0.52
2023-03-14T05:19:07.381Z,0.54
2023-03-14T05:20:07.387Z,0.53
2023-03-14T05:21:07.445Z,0.53
2023-03-14T05:22:07.457Z,0.53
2023-03-14T05:23:07.464Z,0.52
2023-03-14T05:24:07.472Z,0.52
2023-03-14T05:25:06.502Z,0.52
2023-03-14T05:26:06.513Z,0.52
2023-03-14T05:27:07.534Z,0.52
2023-03-14T05:28:06.562Z,0.52
2023-03-14T05:29:07.576Z,0.52
2023-03-14T05:30:07.608Z,0.53
2023-03-14T05:31:06.645Z,0.51
2023-03-14T05:32:07.640Z,0.52
2023-03-14T05:33:07.752Z,0.53
2023-03-14T05:34:06.686Z,0.53
2023-03-14T05:35:07.706Z,0.53
2023-03-14T05:36:06.760Z,0.51
2023-03-14T05:37:07.889Z,0.52
2023-03-14T05:38:06.759Z,0.52
2023-03-14T05:39:07.814Z,0.52
2023-03-14T05:40:07.811Z,0.51
2023-03-14T05:41:07.846Z,0.52
2023-03-14T05:42:07.873Z,0.53
2023-03-14T05:43:07.908Z,0.52
2023-03-14T05:44:07.945Z,0.52
2023-03-14T05:45:06.940Z,0.50
2023-03-14T05:46:07.081Z,0.51
2023-03-14T05:47:07.997Z,0.51
2023-03-14T05:48:08.023Z,0.51
2023-03-14T05:49:08.060Z,0.52
2023-03-14T05:50:08.063Z,0.52
2023-03-14T05:51:08.350Z,0.52
2023-03-14T05:52:08.097Z,0.51
2023-03-14T05:53:08.245Z,0.51
2023-03-14T05:54:08.178Z,0.51
2023-03-14T05:55:08.156Z,0.51
2023-03-14T05:56:08.189Z,0.51
2023-03-14T05:57:08.198Z,0.52
2023-03-14T05:58:08.235Z,0.51
2023-03-14T05:59:08.265Z,0.51
2023-03-14T06:00:08.273Z,0.52
2023-03-14T06:01:08.314Z,0.52
2023-03-14T06:02:08.366Z,0.53
2023-03-14T06:03:08.411Z,0.53
2023-03-14T06:04:08.414Z,0.50
2023-03-14T06:05:08.389Z,0.52
2023-03-14T06:06:08.455Z,0.52
2023-03-14T06:07:08.429Z,0.52
2023-03-14T06:08:07.454Z,0.53
2023-03-14T06:09:07.561Z,0.52
2023-03-14T06:10:08.491Z,0.52
2023-03-14T06:11:08.514Z,0.51
2023-03-14T06:12:07.539Z,0.52
2023-03-14T06:13:08.575Z,0.52
2023-03-14T06:14:08.577Z,0.52
2023-03-14T06:15:08.597Z,0.52
2023-03-14T06:16:08.678Z,0.51
2023-03-14T06:17:08.651Z,0.52
2023-03-14T06:18:08.683Z,0.52
2023-03-14T06:19:07.716Z,0.52
2023-03-14T06:20:08.716Z,0.52
2023-03-14T06:21:08.729Z,0.53
2023-03-14T06:22:08.747Z,0.53
2023-03-14T06:23:08.779Z,0.52
2023-03-14T06:24:08.791Z,0.53
2023-03-14T06:25:08.837Z,0.53
2023-03-14T06:26:08.849Z,0.51
2023-03-14T06:27:08.838Z,0.52
2023-03-14T06:28:07.863Z,0.52
2023-03-14T06:29:07.878Z,0.51
2023-03-14T06:30:08.911Z,0.52
2023-03-14T06:31:08.017Z,0.52
2023-03-14T06:32:08.941Z,0.52
2023-03-14T06:33:08.952Z,0.53
2023-03-14T06:34:08.961Z,0.52
2023-03-14T06:35:08.978Z,0.52
2023-03-14T06:36:09.028Z,0.53
2023-03-14T06:37:08.013Z,0.53
2023-03-14T06:38:09.073Z,0.53
2023-03-14T06:39:08.035Z,0.53
2023-03-14T06:40:09.060Z,0.53
2023-03-14T06:41:09.268Z,0.53
2023-03-14T06:42:09.078Z,0.54
2023-03-14T06:43:08.105Z,0.55
2023-03-14T06:44:09.147Z,0.55
2023-03-14T06:45:09.125Z,0.55
2023-03-14T06:46:09.226Z,0.55
2023-03-14T06:47:09.145Z,0.56
2023-03-14T06:48:09.137Z,0.56
2023-03-14T06:49:08.142Z,0.55
2023-03-14T06:50:09.156Z,0.58
2023-03-14T06:51:08.551Z,0.57
2023-03-14T06:52:09.148Z,0.61
2023-03-14T06:53:09.198Z,0.61
2023-03-14T06:54:09.209Z,0.62
2023-03-14T06:55:09.159Z,0.64
2023-03-14T06:56:09.165Z,0.64
2023-03-14T06:57:09.241Z,0.65
2023-03-14T06:58:09.305Z,0.70
2023-03-14T06:59:09.489Z,0.76
2023-03-14T07:00:09.719Z,0.87
2023-03-14T07:01:08.521Z,0.84
2023-03-14T07:02:09.619Z,0.82
2023-03-14T07:03:08.571Z,0.89
2023-03-14T07:04:09.690Z,0.91
2023-03-14T07:05:09.675Z,0.94
2023-03-14T07:06:09.686Z,0.99
2023-03-14T07:07:09.705Z,1.00
2023-03-14T07:08:09.701Z,1.06
2023-03-14T07:09:09.784Z,1.11
2023-03-14T07:10:09.964Z,1.10
2023-03-14T07:11:09.737Z,1.12
2023-03-14T07:12:09.740Z,1.20
2023-03-14T07:13:09.862Z,1.21
2023-03-14T07:14:09.804Z,1.23
2023-03-14T07:15:18.252Z,1.36
2023-03-14T07:16:10.092Z,1.37
2023-03-14T07:17:09.738Z,1.38
2023-03-14T07:18:09.722Z,1.43
2023-03-14T07:19:09.752Z,1.43
2023-03-14T07:20:08.742Z,1.50
2023-03-14T07:21:09.721Z,1.53
2023-03-14T07:22:08.728Z,1.54
2023-03-14T07:23:09.724Z,1.72
2023-03-14T07:24:09.722Z,1.76
2023-03-14T07:25:09.709Z,1.75
2023-03-14T07:26:08.853Z,1.75
2023-03-14T07:27:11.401Z,1.80
2023-03-14T07:28:09.702Z,1.90
2023-03-14T07:29:10.124Z,1.92
2023-03-14T07:30:08.676Z,1.91
2023-03-14T07:31:09.886Z,1.90
2023-03-14T07:32:09.647Z,1.88
2023-03-14T07:33:11.427Z,1.92
2023-03-14T07:34:09.650Z,2.10
2023-03-14T07:35:09.928Z,2.11
2023-03-14T07:36:10.136Z,2.06
2023-03-14T07:37:10.130Z,2.08
2023-03-14T07:38:08.617Z,2.11
2023-03-14T07:39:08.762Z,2.20
2023-03-14T07:40:09.656Z,2.19
2023-03-14T07:41:09.578Z,2.19
2023-03-14T07:42:09.616Z,2.24
2023-03-14T07:43:09.597Z,2.29
2023-03-14T07:44:08.578Z,2.33
2023-03-14T07:45:09.611Z,2.37
2023-03-14T07:46:09.617Z,2.40
2023-03-14T07:47:09.626Z,2.28
2023-03-14T07:48:09.585Z,2.38
2023-03-14T07:49:09.648Z,2.53
2023-03-14T07:50:09.867Z,2.52
2023-03-14T07:51:08.742Z,2.53
2023-03-14T07:52:09.550Z,2.55
2023-03-14T07:53:09.537Z,2.48
2023-03-14T07:54:09.495Z,2.44
2023-03-14T07:55:09.589Z,2.60
2023-03-14T07:56:09.573Z,2.55
2023-03-14T07:57:09.609Z,2.49
2023-03-14T07:58:09.665Z,2.55
2023-03-14T07:59:09.777Z,2.48
2023-03-14T08:00:09.755Z,2.59
2023-03-14T08:01:10.005Z,2.60
2023-03-14T08:02:09.875Z,2.63
2023-03-14T08:03:09.938Z,2.65
2023-03-14T08:04:10.094Z,2.61
2023-03-14T08:05:10.062Z,2.62
2023-03-14T08:06:10.099Z,2.66
2023-03-14T08:07:10.205Z,2.71
2023-03-14T08:08:10.257Z,2.63
2023-03-14T08:09:10.284Z,2.64
2023-03-14T08:10:10.338Z,2.59
2023-03-14T08:11:10.404Z,2.58
2023-03-14T08:12:10.434Z,2.57
2023-03-14T08:13:10.455Z,2.52
2023-03-14T08:14:10.473Z,2.47
2023-03-14T08:15:10.511Z,2.50
2023-03-14T08:16:10.528Z,2.49
2023-03-14T08:17:10.590Z,2.54
2023-03-14T08:18:09.548Z,2.50
2023-03-14T08:19:10.498Z,2.51
2023-03-14T08:20:09.542Z,2.41
2023-03-14T08:21:10.482Z,2.42
2023-03-14T08:22:10.482Z,2.43
2023-03-14T08:23:10.525Z,2.38
2023-03-14T08:24:10.484Z,2.38
2023-03-14T08:25:10.521Z,2.33
2023-03-14T08:26:10.467Z,2.32
2023-03-14T08:27:11.217Z,2.36
2023-03-14T08:28:09.490Z,2.32
2023-03-14T08:29:10.505Z,2.32
2023-03-14T08:30:10.510Z,2.24
2023-03-14T08:31:09.659Z,2.31
2023-03-14T08:32:10.726Z,2.29
2023-03-14T08:33:10.498Z,2.18
2023-03-14T08:34:10.476Z,2.19
2023-03-14T08:35:10.505Z,2.20
2023-03-14T08:36:10.684Z,2.14
2023-03-14T08:37:19.986Z,2.15
2023-03-14T08:38:10.510Z,2.15
2023-03-14T08:39:10.498Z,2.13
2023-03-14T08:40:09.506Z,2.05
2023-03-14T08:41:10.485Z,1.99
2023-03-14T08:42:10.468Z,1.98
2023-03-14T08:43:10.456Z,1.97
2023-03-14T08:44:10.533Z,1.92
2023-03-14T08:45:09.492Z,1.91
2023-03-14T08:46:10.446Z,1.90
2023-03-14T08:47:10.560Z,1.87
2023-03-14T08:48:10.441Z,1.93
2023-03-14T08:49:10.456Z,1.90
2023-03-14T08:50:11.792Z,1.93
2023-03-14T08:51:09.422Z,1.93
2023-03-14T08:52:10.415Z,1.87
2023-03-14T08:53:10.440Z,1.83
2023-03-14T08:54:09.389Z,1.78
2023-03-14T08:55:10.394Z,1.77
2023-03-14T08:56:09.386Z,1.77
2023-03-14T08:57:10.377Z,1.74
2023-03-14T08:58:10.364Z,1.73
2023-03-14T08:59:10.364Z,1.68
2023-03-14T09:00:09.388Z,1.68
2023-03-14T09:01:10.382Z,1.68
2023-03-14T09:02:12.330Z,1.68
2023-03-14T09:03:09.359Z,1.68
2023-03-14T09:04:10.420Z,1.67
2023-03-14T09:05:10.389Z,1.60
2023-03-14T09:06:10.321Z,1.57
2023-03-14T09:07:10.308Z,1.55
2023-03-14T09:08:10.309Z,1.47
2023-03-14T09:09:10.330Z,1.48
2023-03-14T09:10:10.288Z,1.47
2023-03-14T09:11:10.328Z,1.44
2023-03-14T09:12:10.309Z,1.43
2023-03-14T09:13:10.282Z,1.40
2023-03-14T09:14:09.259Z,1.42
2023-03-14T09:15:10.278Z,1.40
2023-03-14T09:16:09.288Z,1.41
2023-03-14T09:17:10.231Z,1.38
2023-03-14T09:18:10.251Z,1.41
2023-03-14T09:19:10.247Z,1.42
2023-03-14T09:20:10.254Z,1.40
2023-03-14T09:21:10.247Z,1.39
2023-03-14T09:22:10.206Z,1.36
2023-03-14T09:23:10.211Z,1.38
2023-03-14T09:24:10.248Z,1.40
2023-03-14T09:25:10.208Z,1.37
2023-03-14T09:26:09.196Z,1.37
2023-03-14T09:27:10.218Z,1.36
2023-03-14T09:28:10.199Z,1.31
2023-03-14T09:29:10.237Z,1.31
2023-03-14T09:30:10.171Z,1.30
2023-03-14T09:31:10.226Z,1.30
2023-03-14T09:32:10.160Z,1.25
2023-03-14T09:33:10.163Z,1.25
2023-03-14T09:34:10.164Z,1.26
2023-03-14T09:35:09.141Z,1.22
2023-03-14T09:36:10.137Z,1.24
2023-03-14T09:37:10.149Z,1.22
2023-03-14T09:38:09.122Z,1.19
2023-03-14T09:39:09.106Z,1.20
2023-03-14T09:40:11.395Z,1.17
2023-03-14T09:41:10.750Z,1.18
2023-03-14T09:42:10.614Z,1.21
2023-03-14T09:43:09.236Z,1.21
2023-03-14T09:44:10.246Z,1.12
2023-03-14T09:45:10.304Z,0.84
2023-03-14T09:46:11.810Z,0.91
2023-03-14T09:47:10.344Z,0.95
2023-03-14T09:48:10.362Z,1.13
2023-03-14T09:49:10.339Z,1.15
2023-03-14T09:50:10.362Z,1.20
2023-03-14T09:51:10.334Z,1.22
2023-03-14T09:52:10.323Z,1.24
2023-03-14T09:53:10.328Z,1.32
2023-03-14T09:54:10.336Z,1.33
2023-03-14T09:55:10.309Z,1.37
2023-03-14T09:56:10.485Z,1.48
2023-03-14T09:57:09.298Z,1.62
2023-03-14T09:58:10.261Z,1.63
2023-03-14T09:59:09.285Z,1.63
2023-03-14T10:00:09.251Z,1.76
2023-03-14T10:01:09.305Z,1.70
2023-03-14T10:02:10.237Z,1.72
2023-03-14T10:03:10.225Z,1.74
2023-03-14T10:04:09.291Z,1.75
2023-03-14T10:05:10.287Z,1.78
2023-03-14T10:06:10.226Z,1.84
2023-03-14T10:07:10.240Z,1.88
2023-03-14T10:08:10.253Z,1.88
2023-03-14T10:09:10.310Z,1.94
2023-03-14T10:10:09.253Z,1.97
2023-03-14T10:11:10.221Z,2.07
2023-03-14T10:12:11.296Z,2.06
2023-03-14T10:13:10.175Z,2.13
2023-03-14T10:14:10.197Z,2.08
2023-03-14T10:15:10.183Z,2.20
2023-03-14T10:16:09.290Z,2.17
2023-03-14T10:17:10.397Z,2.20
2023-03-14T10:18:10.321Z,2.54
2023-03-14T10:19:10.442Z,2.28
2023-03-14T10:20:10.409Z,2.35
2023-03-14T10:21:10.454Z,2.38
2023-03-14T10:22:09.471Z,2.40
2023-03-14T10:23:10.639Z,2.45
2023-03-14T10:24:10.573Z,2.40
2023-03-14T10:25:09.645Z,2.42
2023-03-14T10:26:09.698Z,2.45
2023-03-14T10:27:10.690Z,2.46
2023-03-14T10:28:10.766Z,2.51
2023-03-14T10:29:10.811Z,2.61
2023-03-14T10:30:09.827Z,2.54
2023-03-14T10:31:10.970Z,2.53
2023-03-14T10:32:10.887Z,2.53
2023-03-14T10:33:09.889Z,2.59
2023-03-14T10:34:10.914Z,2.63
2023-03-14T10:35:10.982Z,2.68
2023-03-14T10:36:13.956Z,2.72
2023-03-14T10:37:10.965Z,2.72
2023-03-14T10:38:10.950Z,2.70
2023-03-14T10:39:10.948Z,2.72
2023-03-14T10:40:11.079Z,2.74
2023-03-14T10:41:11.092Z,2.76
2023-03-14T10:42:10.928Z,2.88
2023-03-14T10:43:10.942Z,2.82
2023-03-14T10:44:10.912Z,2.87
2023-03-14T10:45:10.918Z,2.96
2023-03-14T10:46:11.050Z,3.01
2023-03-14T10:47:10.008Z,2.98
2023-03-14T10:48:10.900Z,3.00
2023-03-14T10:49:10.887Z,3.17
2023-03-14T10:50:10.916Z,3.13
2023-03-14T10:51:10.901Z,3.01
2023-03-14T10:52:10.997Z,3.06
2023-03-14T10:53:10.954Z,3.05
2023-03-14T10:54:10.985Z,3.06
2023-03-14T10:55:11.026Z,3.03
2023-03-14T10:56:11.105Z,2.94
2023-03-14T10:57:11.254Z,2.89
2023-03-14T10:58:11.176Z,2.84
2023-03-14T10:59:11.226Z,2.77
2023-03-14T11:00:11.248Z,2.71
2023-03-14T11:01:11.464Z,2.66
2023-03-14T11:02:13.476Z,2.66
2023-03-14T11:03:11.359Z,2.66
2023-03-14T11:04:10.330Z,2.70
2023-03-14T11:05:11.377Z,2.65
2023-03-14T11:06:11.337Z,2.63
2023-03-14T11:07:10.396Z,2.62
2023-03-14T11:08:11.355Z,2.58
2023-03-14T11:09:11.321Z,2.60
2023-03-14T11:10:10.312Z,2.54
2023-03-14T11:11:11.405Z,2.54
2023-03-14T11:12:11.286Z,2.48
2023-03-14T11:13:11.350Z,2.46
2023-03-14T11:14:11.373Z,2.47
2023-03-14T11:15:11.299Z,2.37
2023-03-14T11:16:11.339Z,2.45
2023-03-14T11:17:11.319Z,2.39
2023-03-14T11:18:10.253Z,2.36
2023-03-14T11:19:10.280Z,2.35
2023-03-14T11:20:11.239Z,2.35
2023-03-14T11:21:11.248Z,2.36
2023-03-14T11:22:11.243Z,2.33
2023-03-14T11:23:11.213Z,2.36
2023-03-14T11:24:11.215Z,2.33
2023-03-14T11:25:11.202Z,2.33
2023-03-14T11:26:10.205Z,2.31
2023-03-14T11:27:11.210Z,2.30
2023-03-14T11:28:11.187Z,2.28
2023-03-14T11:29:10.236Z,2.31
2023-03-14T11:30:11.272Z,2.25
2023-03-14T11:31:11.373Z,2.25
2023-03-14T11:32:10.376Z,2.19
2023-03-14T11:33:11.459Z,2.19
2023-03-14T11:34:11.501Z,2.13
2023-03-14T11:35:10.575Z,2.02
2023-03-14T11:36:10.652Z,2.06
2023-03-14T11:37:11.691Z,2.05
2023-03-14T11:38:11.759Z,1.98
2023-03-14T11:39:11.801Z,1.96
2023-03-14T11:40:11.911Z,1.95
2023-03-14T11:41:11.941Z,1.99
2023-03-14T11:42:11.993Z,1.94
2023-03-14T11:43:12.066Z,1.94
2023-03-14T11:44:12.105Z,1.93
2023-03-14T11:45:11.175Z,2.04
2023-03-14T11:46:12.259Z,2.00
2023-03-14T11:47:11.548Z,2.05
2023-03-14T11:48:11.341Z,2.03
2023-03-14T11:49:12.365Z,1.99
2023-03-14T11:50:11.462Z,1.94
2023-03-14T11:51:12.503Z,1.95
2023-03-14T11:52:11.540Z,1.92
2023-03-14T11:53:12.597Z,1.96
2023-03-14T11:54:12.637Z,1.93
2023-03-14T11:55:11.656Z,1.94
2023-03-14T11:56:12.742Z,1.93
2023-03-14T11:57:11.767Z,1.93
2023-03-14T11:58:12.793Z,1.90
2023-03-14T11:59:12.859Z,1.86
2023-03-14T12:00:11.887Z,1.86
2023-03-14T12:01:12.955Z,1.86
2023-03-14T12:02:12.049Z,1.82
2023-03-14T12:03:13.024Z,1.83
2023-03-14T12:04:13.285Z,1.82
2023-03-14T12:05:12.138Z,1.82
2023-03-14T12:06:13.153Z,1.83
2023-03-14T12:07:13.174Z,1.78
2023-03-14T12:08:13.268Z,1.76
2023-03-14T12:09:12.280Z,1.75
2023-03-14T12:10:13.403Z,1.78
2023-03-14T12:11:13.390Z,1.72
2023-03-14T12:12:13.490Z,1.75
2023-03-14T12:13:12.470Z,1.71
2023-03-14T12:14:13.493Z,1.68
2023-03-14T12:15:13.835Z,1.66
2023-03-14T12:16:13.688Z,1.65
2023-03-14T12:17:13.694Z,1.64
2023-03-14T12:18:13.713Z,1.63
2023-03-14T12:19:12.783Z,1.60
2023-03-14T12:20:12.821Z,1.59
2023-03-14T12:21:12.909Z,1.62
2023-03-14T12:22:13.970Z,1.60
2023-03-14T12:23:13.948Z,1.58
2023-03-14T12:24:14.007Z,1.59
2023-03-14T12:25:14.031Z,1.53
2023-03-14T12:26:14.083Z,1.51
2023-03-14T12:27:14.249Z,1.53
2023-03-14T12:28:14.133Z,1.53
2023-03-14T12:29:13.180Z,1.51
2023-03-14T12:30:13.248Z,1.48
2023-03-14T12:31:14.637Z,1.48
2023-03-14T12:32:14.346Z,1.52
2023-03-14T12:33:14.411Z,1.50
2023-03-14T12:34:14.428Z,1.45
2023-03-14T12:35:14.485Z,1.49
2023-03-14T12:36:14.502Z,1.43
2023-03-14T12:37:14.042Z,1.43
2023-03-14T12:38:14.605Z,1.39
2023-03-14T12:39:13.670Z,1.43
2023-03-14T12:40:14.702Z,1.43
2023-03-14T12:41:14.750Z,1.40
2023-03-14T12:42:14.834Z,1.39
2023-03-14T12:43:14.824Z,1.38
2023-03-14T12:44:13.860Z,1.37
2023-03-14T12:45:14.919Z,1.36
2023-03-14T12:46:15.130Z,1.36
2023-03-14T12:47:15.057Z,1.34
2023-03-14T12:48:14.044Z,1.35
2023-03-14T12:49:15.317Z,1.32
2023-03-14T12:50:15.169Z,1.34
2023-03-14T12:51:15.359Z,1.33
2023-03-14T12:52:15.215Z,1.31
2023-03-14T12:53:15.278Z,1.31
2023-03-14T12:54:15.303Z,1.30
2023-03-14T12:55:14.362Z,1.25
2023-03-14T12:56:15.391Z,1.27
2023-03-14T12:57:14.480Z,1.23
2023-03-14T12:58:15.462Z,1.24
2023-03-14T12:59:14.510Z,1.22
2023-03-14T13:00:15.545Z,1.23
2023-03-14T13:01:15.721Z,1.23
2023-03-14T13:02:15.676Z,1.20
2023-03-14T13:03:15.700Z,1.23
2023-03-14T13:04:14.866Z,1.20
2023-03-14T13:05:15.825Z,1.18
2023-03-14T13:06:15.842Z,1.18
2023-03-14T13:07:15.897Z,1.17
2023-03-14T13:08:15.954Z,1.18
2023-03-14T13:09:16.006Z,1.15
2023-03-14T13:10:16.051Z,1.16
2023-03-14T13:11:16.071Z,1.13
2023-03-14T13:12:16.189Z,1.14
2023-03-14T13:13:16.180Z,1.13
2023-03-14T13:14:16.215Z,1.09
2023-03-14T13:15:16.272Z,1.10
2023-03-14T13:16:16.622Z,1.09
2023-03-14T13:17:36.805Z,1.07
2023-03-14T13:18:16.392Z,1.07
2023-03-14T13:19:15.398Z,1.08